Time;durP1;ratioP1;P1;durP2;ratioP2;P2;SDS_P1;SDS_P2;PMS_P1;PMS_P2;Temp;Humidity;BMP_temperature;BMP_pressure;BME280_temperature;BME280_humidity;BME280_pressure;Samples;Min_cycle;Max_cycle;Signal;HPM_P1;HPM_P2
2022/06/18 00:00:47;;;;;;;2.10;1.90;;;18.60;65.10;;;;;;5048034;28;20029;-82
2022/06/18 00:03:14;;;;;;;2.28;1.67;;;18.50;65.30;;;;;;5066559;28;20032;-82
2022/06/18 00:05:42;;;;;;;1.50;1.40;;;18.50;65.40;;;;;;5053762;28;20009;-82
2022/06/18 00:08:17;;;;;;;2.17;2.00;;;18.50;65.50;;;;;;5076809;28;20037;-82
2022/06/18 00:10:48;;;;;;;1.60;1.50;;;18.50;65.50;;;;;;5069373;28;20025;-82
2022/06/18 00:13:39;;;;;;;1.27;1.17;;;18.50;65.80;;;;;;5051190;28;20030;-82
2022/06/18 00:16:08;;;;;;;2.55;1.50;;;18.50;66.10;;;;;;5057135;28;20108;-80
2022/06/18 00:18:34;;;;;;;2.08;1.85;;;18.40;66.20;;;;;;5055930;28;20021;-80
2022/06/18 00:21:01;;;;;;;3.20;2.00;;;18.30;66.50;;;;;;5054009;28;20080;-80
2022/06/18 00:23:29;;;;;;;2.90;1.75;;;18.30;66.70;;;;;;5051134;28;20037;-80
2022/06/18 00:25:55;;;;;;;1.60;1.48;;;18.20;66.90;;;;;;5065313;28;20028;-79
2022/06/18 00:28:30;;;;;;;1.58;1.48;;;18.20;66.90;;;;;;5060654;28;20010;-80
2022/06/18 00:30:56;;;;;;;2.40;1.60;;;18.10;67.00;;;;;;5053534;28;20041;-81
2022/06/18 00:33:23;;;;;;;1.63;1.52;;;18.10;67.00;;;;;;5032018;28;20025;-80
2022/06/18 00:35:56;;;;;;;1.35;1.33;;;18.10;67.10;;;;;;5039171;28;20025;-81
2022/06/18 00:38:31;;;;;;;2.17;1.80;;;18.00;67.10;;;;;;5039905;28;20122;-81
2022/06/18 00:40:57;;;;;;;1.33;1.25;;;18.00;67.10;;;;;;5040031;28;20025;-81
2022/06/18 00:43:27;;;;;;;1.63;1.52;;;18.00;67.00;;;;;;5036712;28;20076;-81
2022/06/18 00:46:05;;;;;;;16.45;2.40;;;18.00;67.10;;;;;;5042756;28;20029;-79
2022/06/18 00:49:12;;;;;;;1.70;1.60;;;17.90;67.30;;;;;;5041079;28;20474;-80
2022/06/18 00:51:53;;;;;;;1.75;1.50;;;17.90;67.80;;;;;;5039845;28;20049;-81
2022/06/18 00:54:50;;;;;;;1.65;1.55;;;17.90;67.90;;;;;;5048346;28;20038;-82
2022/06/18 00:57:31;;;;;;;1.33;1.20;;;17.80;68.00;;;;;;5036641;28;20481;-82
2022/06/18 01:00:06;;;;;;;1.70;1.60;;;17.80;68.20;;;;;;5057959;28;20021;-81
2022/06/18 01:02:39;;;;;;;1.40;1.30;;;17.80;68.40;;;;;;5039579;28;20417;-81
2022/06/18 01:05:19;;;;;;;2.00;1.90;;;17.80;68.50;;;;;;5039281;28;20032;-82
2022/06/18 01:07:49;;;;;;;1.65;1.55;;;17.70;68.70;;;;;;5038873;28;20343;-81
2022/06/18 01:10:27;;;;;;;1.77;1.67;;;17.70;68.90;;;;;;5039442;28;20087;-81
2022/06/18 01:12:53;;;;;;;1.45;1.35;;;17.60;69.10;;;;;;5038346;28;20029;-79
2022/06/18 01:15:21;;;;;;;2.03;1.73;;;17.60;69.30;;;;;;5038531;28;20013;-81
2022/06/18 01:17:50;;;;;;;1.75;1.45;;;17.60;69.60;;;;;;5038348;28;20029;-82
2022/06/18 01:20:15;;;;;;;1.58;1.48;;;17.60;69.70;;;;;;5037910;28;20120;-82
2022/06/18 01:22:52;;;;;;;1.50;1.40;;;17.60;69.90;;;;;;5037556;28;20057;-82
2022/06/18 01:25:18;;;;;;;1.25;1.25;;;17.60;70.20;;;;;;5041940;28;20039;-81
2022/06/18 01:27:44;;;;;;;2.15;1.95;;;17.60;70.20;;;;;;5039406;28;20048;-81
2022/06/18 01:30:17;;;;;;;1.38;1.30;;;17.50;70.10;;;;;;5057434;28;20029;-79
2022/06/18 01:32:45;;;;;;;1.60;1.45;;;17.50;70.40;;;;;;5036366;28;20124;-81
2022/06/18 01:35:12;;;;;;;2.33;1.65;;;17.50;70.50;;;;;;5038734;28;20478;-80
2022/06/18 01:37:38;;;;;;;1.73;1.50;;;17.50;70.60;;;;;;5039173;28;20029;-81
2022/06/18 01:40:06;;;;;;;3.08;1.83;;;17.40;70.70;;;;;;5018454;28;20037;-81
2022/06/18 01:42:39;;;;;;;1.77;1.67;;;17.40;71.00;;;;;;5048445;28;20021;-79
2022/06/18 01:45:10;;;;;;;2.58;1.50;;;17.40;71.00;;;;;;5051880;28;20021;-81
2022/06/18 01:48:02;;;;;;;1.60;1.50;;;17.40;71.00;;;;;;5040794;28;20034;-81
2022/06/18 01:50:33;;;;;;;1.65;1.52;;;17.40;71.20;;;;;;5012396;28;20045;-78
2022/06/18 01:53:22;;;;;;;1.45;1.35;;;17.40;71.10;;;;;;5048091;28;20124;-78
2022/06/18 01:56:06;;;;;;;1.70;1.60;;;17.40;71.20;;;;;;5038446;28;20059;-78
2022/06/18 01:58:39;;;;;;;1.40;1.30;;;17.40;71.20;;;;;;5033640;28;20017;-79
2022/06/18 02:01:10;;;;;;;3.97;1.48;;;17.40;71.30;;;;;;5033585;28;20045;-80
2022/06/18 02:03:37;;;;;;;1.65;1.55;;;17.40;71.40;;;;;;5032877;28;20030;-80
2022/06/18 02:06:04;;;;;;;1.65;1.55;;;17.40;71.50;;;;;;5017697;28;20077;-81
2022/06/18 02:08:30;;;;;;;1.70;1.60;;;17.30;71.60;;;;;;5021580;28;20029;-81
2022/06/18 02:10:59;;;;;;;1.55;1.45;;;17.30;71.90;;;;;;5038422;28;20091;-82
2022/06/18 02:13:34;;;;;;;2.08;1.55;;;17.30;72.20;;;;;;5037196;28;20052;-81
2022/06/18 02:16:03;;;;;;;1.95;1.85;;;17.20;72.30;;;;;;5020297;28;20185;-80
2022/06/18 02:18:32;;;;;;;1.85;1.75;;;17.20;72.40;;;;;;5039244;28;20446;-81
2022/06/18 02:20:59;;;;;;;1.95;1.60;;;17.20;72.50;;;;;;5038827;28;20447;-80
2022/06/18 02:23:25;;;;;;;2.08;1.88;;;17.20;72.60;;;;;;5038114;28;20034;-80
2022/06/18 02:25:51;;;;;;;1.70;1.60;;;17.20;72.70;;;;;;5050117;28;20023;-80
2022/06/18 02:28:24;;;;;;;2.47;1.90;;;17.20;72.80;;;;;;5058366;28;20035;-80
2022/06/18 02:31:01;;;;;;;1.95;1.80;;;17.20;73.00;;;;;;5057848;28;20088;-80
2022/06/18 02:33:29;;;;;;;1.65;1.50;;;17.10;73.10;;;;;;5058317;28;20033;-80
2022/06/18 02:35:58;;;;;;;1.80;1.70;;;17.10;73.40;;;;;;5062621;28;20025;-80
2022/06/18 02:38:24;;;;;;;1.67;1.58;;;17.10;73.70;;;;;;5070604;28;20071;-79
2022/06/18 02:40:50;;;;;;;1.88;1.77;;;17.00;73.80;;;;;;5052909;28;20034;-79
2022/06/18 02:43:19;;;;;;;1.63;1.52;;;17.00;74.20;;;;;;5046973;28;20065;-80
2022/06/18 02:45:49;;;;;;;1.75;1.65;;;16.90;74.30;;;;;;5018337;28;20374;-80
2022/06/18 02:48:14;;;;;;;2.70;1.90;;;16.90;74.60;;;;;;5038792;28;20025;-80
2022/06/18 02:50:42;;;;;;;1.67;1.58;;;16.90;74.80;;;;;;5038038;28;20027;-81
2022/06/18 02:53:11;;;;;;;2.15;1.90;;;16.90;75.00;;;;;;5039969;28;20034;-81
2022/06/18 02:55:45;;;;;;;1.42;1.33;;;16.80;75.20;;;;;;5049984;28;20026;-80
2022/06/18 02:58:17;;;;;;;1.30;1.20;;;16.90;75.40;;;;;;5020708;28;20125;-80
2022/06/18 03:00:46;;;;;;;1.55;1.45;;;16.80;75.40;;;;;;5021477;28;20362;-80
2022/06/18 03:03:14;;;;;;;2.30;1.80;;;16.80;75.40;;;;;;5020530;28;20061;-81
2022/06/18 03:05:40;;;;;;;1.85;1.73;;;16.80;75.40;;;;;;5013947;28;20030;-81
2022/06/18 03:08:07;;;;;;;2.00;1.90;;;16.80;75.50;;;;;;5040848;28;20033;-79
2022/06/18 03:13:18;;;;;;;2.17;1.92;;;16.70;75.20;;;;;;5041928;28;20064;-79
2022/06/18 03:15:46;;;;;;;1.90;1.80;;;16.70;75.40;;;;;;5040691;28;20449;-81
2022/06/18 03:18:12;;;;;;;2.42;1.88;;;16.70;75.50;;;;;;5026270;28;20040;-80
2022/06/18 03:20:57;;;;;;;1.75;1.65;;;16.70;75.60;;;;;;5046878;28;20480;-81
2022/06/18 03:23:23;;;;;;;1.52;1.40;;;16.60;75.60;;;;;;5040875;28;20059;-80
2022/06/18 03:25:50;;;;;;;2.13;1.75;;;16.60;75.70;;;;;;5054199;28;20093;-81
2022/06/18 03:28:17;;;;;;;1.83;1.48;;;16.70;75.80;;;;;;5060411;28;20047;-81
2022/06/18 03:30:43;;;;;;;2.13;1.40;;;16.70;75.80;;;;;;5039245;28;20025;-82
2022/06/18 03:33:09;;;;;;;1.80;1.50;;;16.70;75.80;;;;;;5022803;28;20026;-81
2022/06/18 03:35:36;;;;;;;2.05;1.90;;;16.70;75.80;;;;;;5040610;28;20028;-82
2022/06/18 03:38:02;;;;;;;1.80;1.70;;;16.70;75.80;;;;;;5022298;28;20121;-81
2022/06/18 03:40:28;;;;;;;1.95;1.70;;;16.70;75.70;;;;;;5041014;28;20483;-80
2022/06/18 03:42:54;;;;;;;1.70;1.60;;;16.70;75.50;;;;;;5040302;28;20532;-81
2022/06/18 03:45:20;;;;;;;1.60;1.60;;;16.70;75.30;;;;;;5041629;28;20025;-79
2022/06/18 03:47:47;;;;;;;1.65;1.55;;;16.70;75.20;;;;;;5046743;28;20064;-81
2022/06/18 03:50:19;;;;;;;1.50;1.40;;;16.70;75.20;;;;;;5022289;28;20028;-81
2022/06/18 03:52:45;;;;;;;1.40;1.38;;;16.80;75.10;;;;;;5039987;28;20124;-81
2022/06/18 03:55:15;;;;;;;2.08;1.88;;;16.80;75.10;;;;;;5055306;28;20126;-79
2022/06/18 03:57:41;;;;;;;1.90;1.80;;;16.80;75.00;;;;;;5041300;28;20036;-81
2022/06/18 04:00:12;;;;;;;1.98;1.80;;;16.80;74.90;;;;;;5042973;28;20068;-81
2022/06/18 04:02:38;;;;;;;1.70;1.60;;;16.90;74.90;;;;;;5042906;28;20030;-79
2022/06/18 04:05:04;;;;;;;1.80;1.70;;;16.90;74.80;;;;;;5027778;28;20113;-81
2022/06/18 04:07:30;;;;;;;1.50;1.40;;;17.00;74.70;;;;;;5022842;28;20029;-80
2022/06/18 04:09:56;;;;;;;1.90;1.80;;;17.00;74.60;;;;;;5038660;28;20030;-80
2022/06/18 04:12:25;;;;;;;3.03;1.67;;;17.10;74.40;;;;;;5020800;28;20029;-80
2022/06/18 04:14:50;;;;;;;1.52;1.42;;;17.10;74.20;;;;;;5038465;28;20474;-80
2022/06/18 04:17:16;;;;;;;1.85;1.75;;;17.10;74.10;;;;;;5039218;28;20045;-81
2022/06/18 04:19:42;;;;;;;1.52;1.40;;;17.20;73.90;;;;;;5039151;28;20029;-81
2022/06/18 04:22:08;;;;;;;1.73;1.63;;;17.20;73.70;;;;;;5039654;28;20030;-80
2022/06/18 04:24:34;;;;;;;1.90;1.80;;;17.30;73.60;;;;;;5047530;28;20114;-80
2022/06/18 04:27:01;;;;;;;2.15;1.58;;;17.40;73.20;;;;;;5053460;28;20094;-81
2022/06/18 04:29:28;;;;;;;1.70;1.60;;;17.40;72.80;;;;;;5060073;28;20112;-81
2022/06/18 04:31:54;;;;;;;1.80;1.70;;;17.50;72.70;;;;;;5059383;28;20481;-80
2022/06/18 04:34:19;;;;;;;1.58;1.48;;;17.60;72.60;;;;;;5056529;28;20049;-81
2022/06/18 04:36:45;;;;;;;1.70;1.60;;;17.70;72.20;;;;;;5038854;28;20030;-81
2022/06/18 04:39:11;;;;;;;2.00;1.85;;;17.80;71.70;;;;;;5039122;28;20104;-81
2022/06/18 04:41:40;;;;;;;1.88;1.60;;;17.90;71.30;;;;;;5038655;28;20025;-80
2022/06/18 04:44:06;;;;;;;2.60;1.77;;;18.00;71.00;;;;;;5039672;28;20056;-81
2022/06/18 04:46:32;;;;;;;1.92;1.83;;;18.10;70.60;;;;;;5048371;28;20014;-80
2022/06/18 04:48:58;;;;;;;1.17;1.15;;;18.20;70.30;;;;;;5037718;28;20061;-80
2022/06/18 04:51:23;;;;;;;2.30;1.88;;;18.40;70.00;;;;;;5037745;28;20029;-80
2022/06/18 04:53:49;;;;;;;2.00;1.80;;;18.50;69.40;;;;;;5037182;28;20159;-80
2022/06/18 04:56:16;;;;;;;3.08;1.70;;;18.60;69.00;;;;;;5048017;28;20040;-81
2022/06/18 04:58:42;;;;;;;1.30;1.27;;;18.80;68.60;;;;;;5038779;28;20319;-80
2022/06/18 05:01:12;;;;;;;1.85;1.55;;;19.00;68.20;;;;;;5057741;28;20021;-81
2022/06/18 05:03:37;;;;;;;1.83;1.63;;;19.10;67.80;;;;;;5056288;28;20342;-80
2022/06/18 05:06:03;;;;;;;1.52;1.48;;;19.30;67.30;;;;;;5038326;28;20055;-80
2022/06/18 05:08:28;;;;;;;1.83;1.45;;;19.80;67.10;;;;;;5045267;28;20034;-81
2022/06/18 05:10:54;;;;;;;1.45;1.27;;;21.50;64.30;;;;;;5036945;28;20065;-80
2022/06/18 05:13:20;;;;;;;2.88;1.50;;;23.80;59.60;;;;;;5037101;28;20112;-80
2022/06/18 05:15:47;;;;;;;1.27;1.25;;;26.00;54.00;;;;;;5026399;28;20022;-79
2022/06/18 05:18:16;;;;;;;1.30;1.30;;;27.80;50.00;;;;;;5053077;28;20021;-79
2022/06/18 05:20:42;;;;;;;1.17;1.17;;;29.10;47.20;;;;;;5046158;28;20097;-81
2022/06/18 05:25:44;;;;;;;1.17;1.17;;;31.00;43.80;;;;;;5035049;28;20456;-76
2022/06/18 05:28:13;;;;;;;1.00;1.00;;;31.70;42.50;;;;;;5035677;28;20018;-78
2022/06/18 05:30:40;;;;;;;1.13;1.13;;;32.50;41.50;;;;;;5035539;28;20044;-78
2022/06/18 05:33:06;;;;;;;1.20;1.20;;;32.90;40.30;;;;;;5035645;28;20466;-80
2022/06/18 05:35:34;;;;;;;1.20;1.10;;;33.20;39.50;;;;;;5035483;28;20108;-78
2022/06/18 05:38:00;;;;;;;1.45;1.30;;;33.50;39.20;;;;;;5035251;28;20060;-77
2022/06/18 05:40:26;;;;;;;1.50;1.40;;;33.80;38.80;;;;;;5039436;28;20029;-78
2022/06/18 05:42:53;;;;;;;1.33;1.33;;;34.10;38.30;;;;;;5039760;28;20017;-78
2022/06/18 05:45:19;;;;;;;1.25;1.25;;;34.40;37.80;;;;;;5040077;28;20021;-78
2022/06/18 05:47:45;;;;;;;1.10;1.05;;;34.60;37.30;;;;;;5039036;28;20041;-78
2022/06/18 05:50:13;;;;;;;1.33;1.30;;;34.70;37.40;;;;;;5039139;28;20053;-78
2022/06/18 05:52:39;;;;;;;1.30;1.30;;;35.00;36.80;;;;;;5039115;28;20060;-79
2022/06/18 05:55:05;;;;;;;1.20;1.20;;;35.30;36.60;;;;;;5046952;28;20026;-77
2022/06/18 05:57:30;;;;;;;1.00;1.00;;;35.60;36.30;;;;;;5037802;28;20062;-77
2022/06/18 05:59:56;;;;;;;1.42;1.30;;;35.90;35.90;;;;;;5021418;28;20017;-77
2022/06/18 06:02:22;;;;;;;0.90;0.90;;;36.30;35.50;;;;;;5038649;28;20060;-79
2022/06/18 06:04:48;;;;;;;1.10;1.10;;;36.60;35.10;;;;;;5038827;28;20029;-79
2022/06/18 06:07:23;;;;;;;1.08;1.08;;;36.90;35.20;;;;;;5019972;28;20038;-79
2022/06/18 06:12:34;;;;;;;1.52;1.42;;;37.20;34.60;;;;;;5036039;28;20029;-81
2022/06/18 06:15:01;;;;;;;0.90;0.90;;;37.40;34.60;;;;;;5035859;28;20021;-80
2022/06/18 06:17:28;;;;;;;1.00;1.00;;;37.70;34.30;;;;;;5036282;28;20049;-81
2022/06/18 06:20:01;;;;;;;1.20;1.20;;;37.90;34.40;;;;;;5036332;28;20048;-81
2022/06/18 06:22:26;;;;;;;1.13;1.13;;;38.10;33.80;;;;;;5035977;28;20478;-79
2022/06/18 06:24:52;;;;;;;1.40;1.30;;;38.10;33.60;;;;;;5044262;28;20034;-80
2022/06/18 06:27:18;;;;;;;1.10;1.10;;;38.00;33.90;;;;;;5053341;28;20032;-79
2022/06/18 06:29:44;;;;;;;1.10;1.10;;;38.00;33.40;;;;;;5060218;28;20108;-80
2022/06/18 06:32:09;;;;;;;1.08;1.08;;;38.00;33.70;;;;;;5048166;28;20044;-81
2022/06/18 06:34:35;;;;;;;1.27;1.27;;;38.20;33.50;;;;;;5052364;28;20034;-80
2022/06/18 06:37:01;;;;;;;1.58;1.55;;;38.20;33.00;;;;;;5040605;28;20478;-80
2022/06/18 06:39:26;;;;;;;1.92;1.30;;;38.00;33.00;;;;;;5043413;28;20080;-80
2022/06/18 06:41:52;;;;;;;1.20;1.20;;;37.90;33.20;;;;;;5046541;28;20505;-79
2022/06/18 06:44:18;;;;;;;1.30;1.30;;;37.80;33.20;;;;;;5028220;28;20033;-78
2022/06/18 06:46:43;;;;;;;1.45;1.35;;;37.80;33.60;;;;;;5045503;28;20026;-78
2022/06/18 06:49:09;;;;;;;1.33;1.33;;;38.10;33.30;;;;;;5045845;28;20032;-79
2022/06/18 06:51:38;;;;;;;1.15;1.15;;;38.40;33.70;;;;;;5043774;28;20025;-78
2022/06/18 06:54:05;;;;;;;2.10;1.45;;;38.30;32.60;;;;;;5045105;28;20041;-77
2022/06/18 06:59:15;;;;;;;1.48;1.40;;;38.50;32.60;;;;;;5039489;28;20497;-79
2022/06/18 07:01:41;;;;;;;2.45;1.42;;;38.20;31.90;;;;;;5038567;28;20022;-78
2022/06/18 07:04:10;;;;;;;1.77;1.60;;;37.90;31.70;;;;;;5037540;28;20064;-82
2022/06/18 07:06:35;;;;;;;1.20;1.20;;;37.70;32.00;;;;;;5039689;28;20024;-79
2022/06/18 07:09:06;;;;;;;1.40;1.40;;;37.70;32.30;;;;;;5020264;28;20017;-76
2022/06/18 07:11:33;;;;;;;1.73;1.27;;;37.70;32.30;;;;;;5020339;28;20393;-79
2022/06/18 07:13:59;;;;;;;1.30;1.30;;;37.60;31.90;;;;;;5037512;28;20025;-78
2022/06/18 07:16:25;;;;;;;1.45;1.42;;;37.40;32.10;;;;;;5038788;28;20083;-81
2022/06/18 07:18:53;;;;;;;1.45;1.35;;;37.50;32.30;;;;;;5039273;28;20055;-76
2022/06/18 07:21:19;;;;;;;1.33;1.30;;;37.20;32.30;;;;;;5020471;28;20029;-78
2022/06/18 07:23:45;;;;;;;1.20;1.20;;;35.50;32.70;;;;;;5040249;28;20033;-78
2022/06/18 07:26:15;;;;;;;1.27;1.20;;;33.30;34.50;;;;;;5049425;28;20450;-78
2022/06/18 07:28:42;;;;;;;1.35;1.27;;;31.20;36.60;;;;;;5058431;28;20032;-78
2022/06/18 07:31:10;;;;;;;1.80;1.70;;;29.70;38.60;;;;;;5059703;28;20029;-79
2022/06/18 07:33:36;;;;;;;1.30;1.30;;;28.60;40.30;;;;;;5059010;28;20028;-79
2022/06/18 07:36:01;;;;;;;1.15;1.13;;;27.70;41.70;;;;;;5049486;28;20394;-79
2022/06/18 07:38:27;;;;;;;1.85;1.70;;;27.20;42.40;;;;;;5021427;28;20036;-78
2022/06/18 07:40:54;;;;;;;1.33;1.23;;;26.80;43.10;;;;;;5036977;28;20026;-77
2022/06/18 07:43:40;;;;;;;1.13;1.13;;;26.70;43.60;;;;;;5039965;28;20033;-81
2022/06/18 07:46:08;;;;;;;1.30;1.30;;;26.50;44.00;;;;;;5022008;28;20030;-79
2022/06/18 07:48:35;;;;;;;1.30;1.30;;;26.40;44.40;;;;;;5022575;28;20025;-79
2022/06/18 07:51:01;;;;;;;5.72;1.33;;;26.30;44.80;;;;;;5039677;28;20035;-79
2022/06/18 07:53:27;;;;;;;1.95;1.23;;;26.30;45.00;;;;;;5040030;28;20049;-79
2022/06/18 07:55:56;;;;;;;1.60;1.50;;;26.30;45.10;;;;;;5057565;28;20048;-78
2022/06/18 07:58:22;;;;;;;1.05;1.05;;;26.30;45.10;;;;;;5039247;28;20020;-79
2022/06/18 08:00:48;;;;;;;1.25;1.25;;;26.30;45.40;;;;;;5039136;28;20021;-78
2022/06/18 08:03:16;;;;;;;1.85;1.50;;;26.30;45.30;;;;;;5043837;28;20025;-77
2022/06/18 08:05:43;;;;;;;2.10;1.73;;;26.30;45.20;;;;;;5021761;28;20028;-79
2022/06/18 08:08:09;;;;;;;1.33;1.33;;;26.40;45.10;;;;;;5056519;28;20065;-80
2022/06/18 08:10:37;;;;;;;1.13;1.10;;;26.40;45.00;;;;;;5024250;28;20052;-78
2022/06/18 08:13:03;;;;;;;1.80;1.30;;;26.60;44.90;;;;;;5045681;28;20025;-80
2022/06/18 08:15:30;;;;;;;1.30;1.30;;;26.60;45.00;;;;;;5023337;28;20022;-77
2022/06/18 08:17:56;;;;;;;1.35;1.30;;;26.70;45.10;;;;;;5038763;28;20018;-76
2022/06/18 08:20:22;;;;;;;1.55;1.45;;;26.80;45.00;;;;;;5038751;28;20048;-79
2022/06/18 08:22:49;;;;;;;1.30;1.20;;;26.90;44.80;;;;;;5019788;28;20052;-78
2022/06/18 08:25:17;;;;;;;1.17;1.17;;;26.90;44.30;;;;;;5041885;28;20132;-79
2022/06/18 08:27:44;;;;;;;1.20;1.10;;;27.00;43.90;;;;;;5039443;28;20029;-81
2022/06/18 08:30:10;;;;;;;2.22;1.05;;;27.00;43.00;;;;;;5041482;28;20088;-80
2022/06/18 08:32:37;;;;;;;1.85;1.30;;;27.10;42.60;;;;;;5051538;28;20077;-85
2022/06/18 08:35:03;;;;;;;1.02;1.00;;;27.10;40.90;;;;;;5049749;28;20036;-82
2022/06/18 08:37:29;;;;;;;1.02;1.00;;;27.20;40.50;;;;;;5038627;28;20029;-81
2022/06/18 08:39:57;;;;;;;0.80;0.80;;;27.30;40.70;;;;;;5047931;28;20025;-82
2022/06/18 08:42:28;;;;;;;1.08;1.00;;;27.30;41.30;;;;;;5037456;28;20049;-80
2022/06/18 08:44:57;;;;;;;0.98;0.98;;;27.40;40.30;;;;;;5035284;28;20506;-83
2022/06/18 08:47:26;;;;;;;0.80;0.80;;;27.50;39.10;;;;;;5038343;28;20079;-83
2022/06/18 08:50:29;;;;;;;1.02;0.90;;;27.70;37.90;;;;;;5036377;28;20022;-82
2022/06/18 08:53:27;;;;;;;1.08;0.80;;;27.80;37.40;;;;;;5044575;28;20088;-79
2022/06/18 08:56:04;;;;;;;0.85;0.60;;;28.00;36.70;;;;;;5002046;28;20053;-82
2022/06/18 08:58:36;;;;;;;0.60;0.60;;;28.00;35.40;;;;;;5004992;28;20022;-83
2022/06/18 09:01:15;;;;;;;0.55;0.55;;;28.10;35.90;;;;;;5039285;28;20022;-81
2022/06/18 09:03:51;;;;;;;0.73;0.73;;;28.20;35.80;;;;;;5039161;28;20390;-81
2022/06/18 09:06:48;;;;;;;0.95;0.63;;;28.40;35.50;;;;;;5039640;28;20021;-81
2022/06/18 09:09:17;;;;;;;0.60;0.60;;;28.50;34.90;;;;;;5023095;28;20021;-84
2022/06/18 09:12:00;;;;;;;0.50;0.50;;;28.60;35.10;;;;;;5041059;28;20026;-81
2022/06/18 09:14:49;;;;;;;0.60;0.60;;;28.60;34.90;;;;;;5024237;28;20022;-83
2022/06/18 09:17:26;;;;;;;0.77;0.60;;;28.80;34.40;;;;;;5022994;28;20072;-85
2022/06/18 09:20:10;;;;;;;0.75;0.75;;;28.70;34.50;;;;;;5041755;28;20320;-83
2022/06/18 09:22:43;;;;;;;2.28;1.02;;;28.80;35.10;;;;;;5049336;28;20063;-83
2022/06/18 09:25:14;;;;;;;0.80;0.80;;;28.90;35.60;;;;;;5039487;28;20033;-81
2022/06/18 09:27:43;;;;;;;;;;;29.00;35.40;;;;;;5039421;28;20482;-79
2022/06/18 09:30:17;;;;;;;0.80;0.80;;;29.10;34.90;;;;;;5038744;28;20305;-81
2022/06/18 09:32:52;;;;;;;1.00;0.88;;;29.20;34.60;;;;;;5038723;28;20038;-82
2022/06/18 09:35:28;;;;;;;0.90;0.90;;;29.20;34.80;;;;;;5038373;28;20029;-81
2022/06/18 09:38:18;;;;;;;0.85;0.85;;;29.30;35.10;;;;;;5036516;28;20041;-80
2022/06/18 09:40:50;;;;;;;1.20;0.95;;;29.50;35.40;;;;;;5040572;28;20052;-78
2022/06/18 09:43:37;;;;;;;1.20;1.20;;;29.60;35.90;;;;;;5040252;28;20021;-79
2022/06/18 09:46:09;;;;;;;0.90;0.90;;;29.70;36.40;;;;;;5040872;28;20025;-80
2022/06/18 09:48:37;;;;;;;0.80;0.80;;;29.80;36.40;;;;;;5041348;28;20049;-80
2022/06/18 09:51:33;;;;;;;3.15;1.20;;;29.90;36.40;;;;;;5038540;28;20079;-82
2022/06/18 09:54:04;;;;;;;1.73;1.10;;;30.10;36.10;;;;;;5044892;28;20109;-82
2022/06/18 09:56:37;;;;;;;1.05;1.05;;;30.30;35.90;;;;;;5019197;28;20022;-80
2022/06/18 09:59:14;;;;;;;0.98;0.98;;;30.40;36.00;;;;;;5016696;28;20029;-79
2022/06/18 10:01:44;;;;;;;1.17;1.08;;;30.40;36.50;;;;;;5033717;28;20105;-79
2022/06/18 10:07:04;;;;;;;3.05;1.48;;;30.70;37.20;;;;;;5037639;28;20021;-79
2022/06/18 10:09:36;;;;;;;1.38;1.27;;;30.80;37.10;;;;;;5038178;28;20024;-80
2022/06/18 10:12:25;;;;;;;1.10;1.10;;;30.80;36.30;;;;;;5038157;28;20029;-81
2022/06/18 10:14:56;;;;;;;1.48;1.38;;;30.80;36.70;;;;;;4998291;28;20501;-81
2022/06/18 10:17:42;;;;;;;1.45;1.35;;;30.90;36.50;;;;;;5040026;28;20025;-80
2022/06/18 10:20:27;;;;;;;2.28;1.17;;;31.00;36.40;;;;;;5037581;28;20045;-81
2022/06/18 10:23:25;;;;;;;1.83;1.38;;;31.20;35.70;;;;;;5045465;28;20022;-82
2022/06/18 10:26:14;;;;;;;1.23;1.23;;;31.10;35.60;;;;;;4995505;28;20050;-80
2022/06/18 10:29:01;;;;;;;1.85;1.30;;;31.00;35.90;;;;;;5020798;28;20022;-81
2022/06/18 10:31:53;;;;;;;1.25;1.15;;;31.00;36.10;;;;;;5037952;28;20487;-79
2022/06/18 10:34:56;;;;;;;4.70;1.55;;;31.10;35.90;;;;;;5028684;28;20042;-81
2022/06/18 10:37:52;;;;;;;1.70;1.60;;;31.30;35.40;;;;;;5023737;28;20097;-81
2022/06/18 10:40:52;;;;;;;1.75;1.50;;;31.40;35.50;;;;;;5037538;28;20063;-80
2022/06/18 10:43:42;;;;;;;1.42;1.10;;;31.50;35.40;;;;;;5037551;28;20407;-82
2022/06/18 10:46:13;;;;;;;1.30;1.20;;;31.60;35.20;;;;;;5037703;28;20029;-82
2022/06/18 10:48:46;;;;;;;1.88;1.30;;;31.80;35.20;;;;;;5037610;28;20418;-82
2022/06/18 10:51:21;;;;;;;1.55;1.40;;;31.80;34.90;;;;;;5037858;28;20048;-80
2022/06/18 10:53:50;;;;;;;2.00;1.42;;;31.90;35.10;;;;;;5038939;28;20163;-80
2022/06/18 10:56:21;;;;;;;1.38;1.30;;;32.10;35.00;;;;;;5038351;28;20112;-81
2022/06/18 10:58:53;;;;;;;1.42;1.40;;;32.30;34.90;;;;;;5039943;28;20030;-81
2022/06/18 11:01:35;;;;;;;1.60;1.50;;;32.10;34.80;;;;;;5024852;28;20024;-79
2022/06/18 11:04:16;;;;;;;1.30;1.30;;;32.00;36.00;;;;;;5025453;28;20500;-79
2022/06/18 11:06:46;;;;;;;1.52;1.27;;;32.30;35.30;;;;;;5043020;28;20108;-80
2022/06/18 11:09:25;;;;;;;1.23;1.23;;;32.50;34.60;;;;;;5045114;28;20100;-81
2022/06/18 11:11:56;;;;;;;2.83;1.65;;;32.70;34.10;;;;;;5052685;28;20478;-82
2022/06/18 11:14:23;;;;;;;3.25;1.95;;;32.80;33.60;;;;;;5055298;28;20044;-79
2022/06/18 11:16:54;;;;;;;4.15;1.45;;;32.80;33.30;;;;;;5054665;28;20030;-77
2022/06/18 11:19:35;;;;;;;1.63;1.48;;;32.80;33.50;;;;;;5028836;28;20119;-77
2022/06/18 11:22:18;;;;;;;1.40;1.25;;;32.70;33.50;;;;;;5048638;28;20025;-78
2022/06/18 11:24:54;;;;;;;1.52;1.40;;;32.70;33.50;;;;;;5064661;22;20142;-85
2022/06/18 11:27:21;;;;;;;2.45;1.20;;;32.70;33.60;;;;;;5028650;28;20025;-85
2022/06/18 11:29:56;;;;;;;3.55;1.75;;;32.90;33.20;;;;;;5020159;28;20125;-85
2022/06/18 11:32:46;;;;;;;1.70;1.60;;;33.00;33.00;;;;;;5018250;28;20036;-84
2022/06/18 11:35:15;;;;;;;1.42;1.33;;;33.00;32.90;;;;;;5019923;28;20034;-85
2022/06/18 11:37:42;;;;;;;2.67;1.73;;;33.10;33.00;;;;;;5020787;28;20076;-86
2022/06/18 11:40:11;;;;;;;3.53;1.40;;;33.20;32.80;;;;;;5008804;28;20398;-87
2022/06/18 11:42:45;;;;;;;2.00;1.83;;;33.20;32.50;;;;;;5030252;28;20098;-86
2022/06/18 11:45:23;;;;;;;4.55;1.60;;;33.10;32.50;;;;;;5020660;28;20025;-86
2022/06/18 11:47:58;;;;;;;1.60;1.50;;;33.20;32.30;;;;;;5040229;28;20099;-86
2022/06/18 11:50:29;;;;;;;1.50;1.40;;;33.00;32.30;;;;;;5021164;28;20026;-86
2022/06/18 11:53:11;;;;;;;2.50;1.48;;;33.10;32.70;;;;;;5037998;28;20041;-87
2022/06/18 11:55:43;;;;;;;1.63;1.52;;;33.40;32.40;;;;;;5039584;28;20029;-86
2022/06/18 11:58:18;;;;;;;4.82;1.52;;;33.40;32.30;;;;;;5045447;28;20370;-85
2022/06/18 12:00:53;;;;;;;2.50;1.98;;;33.10;32.20;;;;;;5040541;28;20087;-85
2022/06/18 12:03:34;;;;;;;1.40;1.30;;;33.10;32.50;;;;;;5020420;28;20437;-87
2022/06/18 12:06:30;;;;;;;2.53;1.48;;;33.30;32.50;;;;;;5040097;28;20017;-86
2022/06/18 12:08:55;;;;;;;1.38;1.27;;;33.50;32.10;;;;;;5020568;28;20028;-85
2022/06/18 12:11:33;;;;;;;2.03;1.83;;;33.70;31.80;;;;;;5021164;28;20100;-86
2022/06/18 12:14:12;;;;;;;5.40;1.60;;;33.70;31.60;;;;;;5025332;28;20125;-87
2022/06/18 12:16:47;;;;;;;5.25;2.20;;;33.70;31.50;;;;;;5041673;28;20061;-87
2022/06/18 12:19:48;;;;;;;1.58;1.45;;;33.70;31.60;;;;;;5042577;28;20041;-87
2022/06/18 12:22:40;;;;;;;2.10;1.50;;;33.90;31.60;;;;;;4997196;28;20088;-88
2022/06/18 12:25:32;;;;;;;2.47;1.55;;;34.20;31.60;;;;;;5022346;28;20056;-87
2022/06/18 12:28:13;;;;;;;2.70;1.40;;;34.20;31.30;;;;;;5054481;28;20043;-85
2022/06/18 12:30:46;;;;;;;;;;;34.30;31.40;;;;;;5039180;28;20029;-87
2022/06/18 12:33:17;;;;;;;3.10;1.33;;;34.50;31.20;;;;;;5036175;28;19893;-87
2022/06/18 12:35:45;;;;;;;;;;;34.60;31.10;;;;;;5040331;28;20029;-85
2022/06/18 12:38:17;;;;;;;4.55;1.70;;;34.70;31.00;;;;;;5030924;28;20362;-88
2022/06/18 12:40:52;;;;;;;5.75;2.13;;;34.90;31.50;;;;;;5025120;28;20021;-87
2022/06/18 12:43:42;;;;;;;4.78;2.00;;;34.90;30.70;;;;;;5023573;28;20132;-87
2022/06/18 12:46:41;;;;;;;6.78;2.17;;;34.90;30.40;;;;;;5036587;28;20045;-87
2022/06/18 12:49:33;;;;;;;7.60;2.00;;;34.80;30.30;;;;;;5015340;28;20052;-87
2022/06/18 12:52:24;;;;;;;4.32;1.70;;;34.80;30.60;;;;;;5030014;28;20033;-87
2022/06/18 12:54:52;;;;;;;;;;;35.00;30.70;;;;;;5060709;28;20059;-86
2022/06/18 12:57:37;;;;;;;3.60;1.90;;;35.00;30.50;;;;;;5060527;28;19893;-86
2022/06/18 13:00:19;;;;;;;3.13;1.92;;;34.80;30.80;;;;;;5036893;28;20045;-85
2022/06/18 13:03:20;;;;;;;4.50;2.28;;;34.80;31.30;;;;;;5019600;28;20041;-87
2022/06/18 13:05:52;;;;;;;2.72;1.50;;;34.80;31.40;;;;;;5014591;28;20028;-87
2022/06/18 13:08:56;;;;;;;4.22;2.00;;;34.90;31.40;;;;;;5019800;28;20025;-87
2022/06/18 13:11:21;;;;;;;4.18;2.03;;;35.00;31.00;;;;;;5022803;28;20058;-87
2022/06/18 13:14:15;;;;;;;2.45;1.95;;;35.00;31.00;;;;;;5019544;28;20037;-88
2022/06/18 13:17:49;;;;;;;4.70;1.90;;;35.00;31.20;;;;;;5021302;28;20032;-87
2022/06/18 13:20:41;;;;;;;4.25;2.30;;;34.80;30.70;;;;;;4988869;28;20379;-86
2022/06/18 13:28:51;;;;;;;4.57;2.20;;;35.00;31.20;;;;;;5047323;28;20562;-86
2022/06/18 13:31:17;;;;;;;3.10;1.70;;;35.10;30.90;;;;;;5021809;28;20025;-86
2022/06/18 13:34:18;;;;;;;3.10;2.00;;;35.00;31.20;;;;;;5032856;28;20025;-87